createdAt,value
2018-12-25T00:02:23.851Z,84.13
2018-12-25T00:05:13.398Z,84.15
2018-12-25T00:08:03.121Z,83.60
2018-12-25T00:10:52.811Z,83.72
2018-12-25T00:13:42.532Z,84.25
2018-12-25T00:16:32.533Z,84.37
2018-12-25T00:19:21.995Z,84.02
2018-12-25T00:22:11.698Z,84.01
2018-12-25T00:25:01.689Z,83.60
2018-12-25T00:27:51.451Z,83.95
2018-12-25T00:30:40.910Z,84.31
2018-12-25T00:33:30.758Z,84.36
2018-12-25T00:36:20.908Z,84.04
2018-12-25T00:39:10.649Z,84.36
2018-12-25T00:42:01.489Z,84.37
2018-12-25T00:44:51.193Z,83.78
2018-12-25T00:47:41.178Z,84.30
2018-12-25T00:50:30.997Z,84.23
2018-12-25T00:53:20.457Z,83.77
2018-12-25T00:56:10.516Z,83.51
2018-12-25T00:58:59.990Z,83.55
2018-12-25T01:01:50.476Z,83.46
2018-12-25T01:04:40.307Z,83.38
2018-12-25T01:07:30.248Z,84.41
2018-12-25T01:10:20.527Z,84.17
2018-12-25T01:13:09.979Z,83.61
2018-12-25T01:15:59.730Z,83.84
2018-12-25T01:18:49.503Z,84.01
2018-12-25T01:21:39.196Z,83.93
2018-12-25T01:24:28.934Z,84.12
2018-12-25T01:27:19.770Z,84.06
2018-12-25T01:30:09.443Z,84.85
2018-12-25T01:33:00.617Z,85.06
2018-12-25T01:35:50.616Z,84.75
2018-12-25T01:38:40.351Z,84.85
2018-12-25T01:41:29.852Z,84.55
2018-12-25T01:44:19.808Z,84.89
2018-12-25T01:47:09.328Z,84.86
2018-12-25T01:49:59.054Z,85.44
2018-12-25T01:52:48.537Z,85.51
2018-12-25T01:55:38.807Z,84.85
2018-12-25T01:58:28.262Z,85.31
2018-12-25T02:01:17.990Z,84.94
2018-12-25T02:04:08.152Z,84.88
2018-12-25T02:06:57.330Z,84.12
2018-12-25T02:09:46.816Z,83.86
2018-12-25T02:12:36.571Z,83.62
2018-12-25T02:15:26.375Z,83.87
2018-12-25T02:18:16.470Z,83.83
2018-12-25T02:21:06.252Z,84.45
2018-12-25T02:23:56.452Z,84.59
2018-12-25T02:26:46.419Z,84.93
2018-12-25T02:29:36.163Z,85.54
2018-12-25T02:32:25.914Z,85.55
2018-12-25T02:35:15.894Z,85.53
2018-12-25T02:38:05.358Z,85.77
2018-12-25T02:40:55.100Z,85.98
2018-12-25T02:43:44.643Z,85.87
2018-12-25T02:46:34.402Z,85.81
2018-12-25T02:49:24.145Z,85.69
2018-12-25T02:52:14.120Z,86.02
2018-12-25T02:55:04.157Z,86.17
2018-12-25T02:57:53.614Z,86.15
2018-12-25T03:00:43.348Z,86.12
2018-12-25T03:03:33.364Z,85.66
2018-12-25T03:06:23.406Z,85.38
2018-12-25T03:09:13.139Z,85.20
2018-12-25T03:12:02.948Z,84.05
2018-12-25T03:14:52.655Z,84.27
2018-12-25T03:17:42.139Z,83.96
2018-12-25T03:20:32.115Z,83.54
2018-12-25T03:23:21.874Z,83.36
2018-12-25T03:26:11.621Z,83.10
2018-12-25T03:29:02.146Z,83.57
2018-12-25T03:31:52.134Z,84.01
2018-12-25T03:34:41.827Z,84.63
2018-12-25T03:37:32.017Z,84.83
2018-12-25T03:40:21.576Z,84.80
2018-12-25T03:43:11.101Z,84.38
2018-12-25T03:46:00.566Z,84.46
2018-12-25T03:48:51.348Z,84.33
2018-12-25T03:51:40.910Z,83.81
2018-12-25T03:54:30.379Z,84.39
2018-12-25T03:57:20.072Z,84.75
2018-12-25T04:00:10.981Z,84.50
2018-12-25T04:03:00.519Z,84.28
2018-12-25T04:05:50.314Z,84.17
2018-12-25T04:08:40.461Z,83.67
2018-12-25T04:11:29.936Z,83.63
2018-12-25T04:14:20.752Z,83.33
2018-12-25T04:17:10.262Z,83.70
2018-12-25T04:20:00.386Z,83.63
2018-12-25T04:22:50.596Z,83.95
2018-12-25T04:25:40.336Z,83.81
2018-12-25T04:28:30.782Z,83.50
2018-12-25T04:31:20.787Z,83.55
2018-12-25T04:34:10.813Z,82.87
2018-12-25T04:37:00.596Z,82.57
2018-12-25T04:39:51.380Z,82.89
2018-12-25T04:42:41.575Z,82.68
2018-12-25T04:45:31.570Z,81.77
2018-12-25T04:48:21.513Z,81.59
2018-12-25T04:51:11.513Z,80.74
2018-12-25T04:54:00.953Z,81.49
2018-12-25T04:56:50.428Z,81.45
2018-12-25T04:59:39.959Z,81.54
2018-12-25T05:02:29.666Z,81.45
2018-12-25T05:05:20.125Z,80.79
2018-12-25T05:08:10.351Z,80.51
2018-12-25T05:11:00.702Z,80.27
2018-12-25T05:13:50.427Z,79.91
2018-12-25T05:16:40.249Z,80.48
2018-12-25T05:19:30.227Z,80.19
2018-12-25T05:22:19.938Z,80.39
2018-12-25T05:25:09.916Z,80.77
2018-12-25T05:27:59.988Z,80.36
2018-12-25T05:30:49.655Z,79.52
2018-12-25T05:33:39.727Z,79.75
2018-12-25T05:36:50.000Z,79.91
2018-12-25T05:39:40.204Z,79.62
2018-12-25T05:42:29.984Z,79.48
2018-12-25T05:45:19.718Z,80.19
2018-12-25T05:48:09.943Z,79.45
2018-12-25T05:51:00.168Z,80.07
2018-12-25T05:53:49.896Z,80.07
2018-12-25T05:56:40.240Z,80.48
2018-12-25T05:59:29.995Z,80.47
2018-12-25T06:02:19.791Z,80.46
2018-12-25T06:05:10.343Z,81.73
2018-12-25T06:08:00.621Z,82.09
2018-12-25T06:10:50.596Z,82.10
2018-12-25T06:13:40.343Z,80.90
2018-12-25T06:16:30.751Z,81.46
2018-12-25T06:19:20.667Z,81.66
2018-12-25T06:22:10.789Z,81.73
2018-12-25T06:25:00.749Z,81.86
2018-12-25T06:27:50.558Z,82.09
2018-12-25T06:30:40.761Z,81.37
2018-12-25T06:33:30.551Z,81.62
2018-12-25T06:36:20.346Z,81.70
2018-12-25T06:39:10.054Z,81.84
2018-12-25T06:41:59.808Z,81.21
2018-12-25T06:44:49.518Z,81.24
2018-12-25T06:47:39.263Z,81.80
2018-12-25T06:50:29.317Z,81.28
2018-12-25T06:53:19.037Z,81.42
2018-12-25T06:56:09.630Z,82.14
2018-12-25T06:58:59.103Z,81.76
2018-12-25T07:01:48.825Z,81.17
2018-12-25T07:04:38.830Z,81.61
2018-12-25T07:07:28.782Z,81.70
2018-12-25T07:10:18.769Z,81.86
2018-12-25T07:13:08.625Z,81.59
2018-12-25T07:15:58.092Z,81.77
2018-12-25T07:18:47.588Z,81.66
2018-12-25T07:21:37.848Z,81.40
2018-12-25T07:24:27.337Z,81.69
2018-12-25T07:27:17.285Z,81.73
2018-12-25T07:30:07.519Z,81.66
2018-12-25T07:32:57.724Z,81.14
2018-12-25T07:35:47.754Z,80.98
2018-12-25T07:38:37.478Z,80.49
2018-12-25T07:41:28.080Z,80.20
2018-12-25T07:44:17.576Z,80.31
2018-12-25T07:47:07.049Z,79.66
2018-12-25T07:49:57.059Z,79.40
2018-12-25T07:52:47.761Z,78.96
2018-12-25T07:55:37.481Z,78.88
2018-12-25T07:58:28.119Z,78.62
2018-12-25T08:01:17.592Z,78.85
2018-12-25T08:04:07.359Z,79.35
2018-12-25T08:06:56.842Z,78.77
2018-12-25T08:09:46.315Z,78.81
2018-12-25T08:12:36.055Z,78.26
2018-12-25T08:15:25.774Z,78.17
2018-12-25T08:18:15.887Z,78.16
2018-12-25T08:21:05.839Z,78.25
2018-12-25T08:23:55.841Z,78.55
2018-12-25T08:26:45.684Z,78.72
2018-12-25T08:29:35.410Z,78.47
2018-12-25T08:32:25.381Z,78.24
2018-12-25T08:35:15.288Z,78.55
2018-12-25T08:38:05.612Z,78.96
2018-12-25T08:40:55.543Z,78.70
2018-12-25T08:43:45.271Z,77.93
2018-12-25T08:46:35.213Z,77.56
2018-12-25T08:49:25.057Z,78.34
2018-12-25T08:52:14.787Z,77.59
2018-12-25T08:55:04.810Z,78.03
2018-12-25T08:57:55.420Z,76.84
2018-12-25T09:00:44.911Z,77.72
2018-12-25T09:03:35.547Z,77.59
2018-12-25T09:06:25.786Z,77.67
2018-12-25T09:09:15.778Z,77.15
2018-12-25T09:12:05.335Z,77.45
2018-12-25T09:14:56.726Z,76.74
2018-12-25T09:17:46.431Z,77.18
2018-12-25T09:20:35.973Z,76.76
2018-12-25T09:23:26.704Z,76.23
2018-12-25T09:26:17.004Z,76.17
2018-12-25T09:29:06.750Z,76.57
2018-12-25T09:31:57.227Z,76.54
2018-12-25T09:34:48.086Z,76.13
2018-12-25T09:37:38.501Z,75.89
2018-12-25T09:40:28.523Z,75.34
2018-12-25T09:43:19.106Z,76.12
2018-12-25T09:46:08.857Z,76.21
2018-12-25T09:48:59.200Z,76.85
2018-12-25T09:51:54.494Z,76.51
2018-12-25T09:54:41.080Z,76.37
2018-12-25T09:57:31.568Z,75.75
2018-12-25T10:00:21.431Z,75.55
2018-12-25T10:03:11.016Z,75.61
2018-12-25T10:06:01.128Z,76.14
2018-12-25T10:08:50.848Z,75.63
2018-12-25T10:11:44.509Z,75.98
2018-12-25T10:14:32.588Z,75.99
2018-12-25T10:17:22.128Z,76.79
2018-12-25T10:20:12.058Z,76.66
2018-12-25T10:23:01.874Z,76.00
2018-12-25T10:25:51.629Z,75.94
2018-12-25T10:28:41.740Z,75.39
2018-12-25T10:31:31.202Z,75.96
2018-12-25T10:34:21.099Z,74.63
2018-12-25T10:37:10.587Z,73.43
2018-12-25T10:40:00.332Z,74.30
2018-12-25T10:42:49.802Z,74.36
2018-12-25T10:45:40.084Z,74.14
2018-12-25T10:48:29.670Z,72.79
2018-12-25T10:51:19.199Z,72.68
2018-12-25T10:54:08.907Z,73.41
2018-12-25T10:56:58.783Z,72.33
2018-12-25T10:59:48.586Z,73.08
2018-12-25T11:02:38.341Z,72.36
2018-12-25T11:05:28.278Z,72.05
2018-12-25T11:08:17.988Z,73.48
2018-12-25T11:11:07.988Z,72.38
2018-12-25T11:13:57.699Z,72.98
2018-12-25T11:16:47.639Z,72.93
2018-12-25T11:19:37.618Z,73.21
2018-12-25T11:22:27.131Z,73.63
2018-12-25T11:25:16.594Z,73.44
2018-12-25T11:28:06.327Z,73.84
2018-12-25T11:30:56.295Z,74.86
2018-12-25T11:33:45.764Z,75.58
2018-12-25T11:36:47.818Z,73.82
2018-12-25T11:39:37.545Z,73.82
2018-12-25T11:42:27.262Z,74.11
2018-12-25T11:45:16.724Z,74.11
2018-12-25T11:48:06.188Z,74.08
2018-12-25T11:50:55.913Z,73.95
2018-12-25T11:53:46.404Z,74.15
2018-12-25T11:56:36.359Z,73.57
2018-12-25T11:59:26.306Z,74.03
2018-12-25T12:02:17.124Z,73.61
2018-12-25T12:05:07.492Z,73.83
2018-12-25T12:07:57.422Z,73.46
2018-12-25T12:10:47.200Z,73.19
2018-12-25T12:13:37.159Z,74.45
2018-12-25T12:16:26.885Z,74.68
2018-12-25T12:19:16.674Z,73.81
2018-12-25T12:22:06.661Z,73.74
2018-12-25T12:24:55.485Z,73.64
2018-12-25T12:27:44.979Z,73.42
2018-12-25T12:30:34.700Z,73.33
2018-12-25T12:33:24.171Z,72.03
2018-12-25T12:36:14.119Z,71.62
2018-12-25T12:42:33.069Z,71.42
2018-12-25T12:45:22.785Z,72.80
2018-12-25T12:48:12.531Z,72.39
2018-12-25T12:51:02.385Z,73.02
2018-12-25T12:53:52.414Z,71.55
2018-12-25T12:56:41.889Z,71.58
2018-12-25T12:59:31.724Z,72.61
2018-12-25T13:02:21.431Z,71.95
2018-12-25T13:05:11.645Z,72.51
2018-12-25T13:08:02.245Z,71.83
2018-12-25T13:10:51.987Z,72.90
2018-12-25T13:13:41.704Z,71.99
2018-12-25T13:16:50.388Z,71.61
2018-12-25T13:19:40.136Z,71.92
2018-12-25T13:22:29.604Z,72.25
2018-12-25T13:25:19.669Z,72.99
2018-12-25T13:28:09.994Z,72.75
2018-12-25T13:31:00.228Z,72.47
2018-12-25T13:33:49.963Z,71.53
2018-12-25T13:36:39.459Z,72.18
2018-12-25T13:39:50.111Z,72.08
2018-12-25T13:42:39.657Z,73.50
2018-12-25T13:45:29.908Z,73.50
2018-12-25T13:48:19.668Z,73.34
2018-12-25T13:51:09.385Z,73.06
2018-12-25T13:53:59.122Z,73.29
2018-12-25T13:56:48.644Z,72.92
2018-12-25T13:59:38.427Z,73.76
2018-12-25T14:02:28.477Z,74.65
2018-12-25T14:05:18.283Z,73.87
2018-12-25T14:08:08.089Z,73.86
2018-12-25T14:10:57.832Z,73.58
2018-12-25T14:13:47.630Z,73.12
2018-12-25T14:16:37.846Z,72.98
2018-12-25T14:19:27.861Z,73.08
2018-12-25T14:22:17.410Z,73.72
2018-12-25T14:25:07.648Z,73.17
2018-12-25T14:28:15.937Z,73.29
2018-12-25T14:31:05.718Z,73.44
2018-12-25T14:33:55.525Z,73.33
2018-12-25T14:40:17.575Z,72.01
2018-12-25T14:46:23.947Z,73.59
2018-12-25T14:49:14.005Z,73.91
2018-12-25T14:52:04.616Z,73.28
2018-12-25T14:54:56.230Z,74.21
2018-12-25T14:57:45.878Z,74.89
2018-12-25T15:00:36.797Z,75.20
2018-12-25T15:03:47.200Z,75.60
2018-12-25T15:06:37.382Z,74.92
2018-12-25T15:09:28.517Z,73.83
2018-12-25T15:12:18.638Z,74.38
2018-12-25T15:15:08.975Z,74.78
2018-12-25T15:21:10.372Z,75.05
2018-12-25T15:24:00.513Z,75.53
2018-12-25T15:26:50.710Z,75.93
2018-12-25T15:29:41.189Z,76.22
2018-12-25T15:32:30.792Z,76.43
2018-12-25T15:35:20.482Z,76.70
2018-12-25T15:38:10.774Z,77.03
2018-12-25T15:41:00.586Z,77.39
2018-12-25T15:43:50.360Z,77.58
2018-12-25T15:46:40.547Z,77.90
2018-12-25T15:49:30.294Z,78.05
2018-12-25T15:52:19.959Z,78.57
2018-12-25T15:55:10.292Z,78.63
2018-12-25T15:58:00.458Z,78.63
2018-12-25T16:00:50.933Z,78.62
2018-12-25T16:03:40.986Z,78.68
2018-12-25T16:06:34.388Z,79.23
2018-12-25T16:09:22.695Z,79.65
2018-12-25T16:12:12.982Z,80.19
2018-12-25T16:15:02.739Z,80.52
2018-12-25T16:17:52.561Z,80.98
2018-12-25T16:20:42.040Z,81.56
2018-12-25T16:23:32.544Z,81.58
2018-12-25T16:26:22.808Z,81.57
2018-12-25T16:29:12.783Z,81.83
2018-12-25T16:32:22.059Z,81.31
2018-12-25T16:35:11.775Z,81.31
2018-12-25T16:38:01.989Z,82.02
2018-12-25T16:40:51.715Z,82.06
2018-12-25T16:43:41.165Z,82.06
2018-12-25T16:46:30.735Z,82.17
2018-12-25T16:49:20.217Z,82.35
2018-12-25T16:52:09.765Z,82.42
2018-12-25T16:54:59.509Z,82.37
2018-12-25T16:57:49.251Z,82.27
2018-12-25T17:00:39.459Z,82.63
2018-12-25T17:03:29.661Z,83.22
2018-12-25T17:06:20.433Z,83.28
2018-12-25T17:09:29.587Z,83.03
2018-12-25T17:12:19.559Z,83.03
2018-12-25T17:15:09.336Z,83.57
2018-12-25T17:17:59.036Z,83.57
2018-12-25T17:20:48.819Z,83.93
2018-12-25T17:24:02.141Z,84.33
2018-12-25T17:26:49.041Z,84.33
2018-12-25T17:29:39.308Z,84.69
2018-12-25T17:32:29.035Z,85.44
2018-12-25T17:35:38.405Z,85.90
2018-12-25T17:38:28.880Z,86.37
2018-12-25T17:41:18.363Z,86.37
2018-12-25T17:44:27.290Z,86.07
2018-12-25T17:47:17.058Z,86.07
2018-12-25T17:50:06.980Z,86.27
2018-12-25T17:52:56.714Z,85.63
2018-12-25T17:55:46.769Z,84.70
2018-12-25T17:58:55.720Z,85.22
2018-12-25T18:01:45.481Z,85.22
2018-12-25T18:04:54.144Z,85.85
2018-12-25T18:07:44.248Z,85.85
2018-12-25T18:10:34.308Z,86.16
2018-12-25T18:13:24.328Z,85.87
2018-12-25T18:16:13.809Z,85.90
2018-12-25T18:19:03.837Z,86.08
2018-12-25T18:21:53.819Z,86.22
2018-12-25T18:25:02.563Z,85.89
2018-12-25T18:27:52.547Z,85.89
2018-12-25T18:30:42.563Z,84.83
2018-12-25T18:33:32.328Z,85.00
2018-12-25T18:36:22.402Z,85.00
2018-12-25T18:39:12.228Z,85.28
2018-12-25T18:42:02.975Z,84.94
2018-12-25T18:44:52.788Z,85.14
2018-12-25T18:48:01.746Z,85.92
2018-12-25T18:50:51.479Z,85.92
2018-12-25T18:54:01.232Z,86.26
2018-12-25T18:56:51.319Z,85.78
2018-12-25T18:59:40.813Z,85.78
2018-12-25T19:02:49.765Z,85.63
2018-12-25T19:05:39.215Z,85.63
2018-12-25T19:08:47.910Z,85.21
2018-12-25T19:11:37.669Z,84.96
2018-12-25T19:14:50.074Z,83.84
2018-12-25T19:17:39.810Z,83.84
2018-12-25T19:20:29.630Z,83.72
2018-12-25T19:23:19.920Z,83.58
2018-12-25T19:29:58.000Z,84.89
2018-12-25T19:32:59.832Z,85.00
2018-12-25T19:35:49.843Z,86.50
2018-12-25T19:38:39.855Z,86.50
2018-12-25T19:41:29.761Z,86.34
2018-12-25T19:44:19.408Z,86.87
2018-12-25T19:47:09.487Z,86.87
2018-12-25T19:50:18.277Z,87.68
2018-12-25T19:53:09.113Z,87.68
2018-12-25T19:55:58.982Z,87.52
2018-12-25T19:59:07.771Z,86.94
2018-12-25T20:02:16.782Z,86.74
2018-12-25T20:05:44.592Z,86.74
2018-12-25T20:09:12.406Z,87.60
2018-12-25T20:12:37.617Z,87.60
2018-12-25T20:16:05.400Z,87.13
2018-12-25T20:19:34.169Z,86.96
2018-12-25T20:22:48.146Z,86.77
2018-12-25T20:26:03.618Z,86.43
2018-12-25T20:29:31.451Z,86.35
2018-12-25T20:32:32.497Z,86.12
2018-12-25T20:36:00.344Z,86.12
2018-12-25T20:39:28.161Z,86.85
2018-12-25T20:46:52.933Z,88.03
2018-12-25T20:50:20.739Z,88.38
2018-12-25T20:53:48.579Z,88.38
2018-12-25T20:57:16.395Z,86.19
2018-12-25T21:00:44.247Z,86.19
2018-12-25T21:04:12.074Z,86.47
2018-12-25T21:07:40.164Z,86.47
2018-12-25T21:11:07.986Z,87.00
2018-12-25T21:14:35.799Z,86.34
2018-12-25T21:18:05.853Z,86.82
2018-12-25T21:21:41.578Z,86.82
2018-12-25T21:25:10.125Z,86.53
2018-12-25T21:28:18.143Z,85.12
2018-12-25T21:34:25.922Z,86.86
2018-12-25T21:37:18.462Z,86.86
2018-12-25T21:40:09.007Z,86.74
2018-12-25T21:42:59.586Z,85.55
2018-12-25T21:45:49.703Z,87.14
2018-12-25T21:48:39.352Z,87.36
2018-12-25T21:51:31.083Z,87.36
2018-12-25T21:54:39.851Z,88.32
2018-12-25T21:57:50.013Z,88.32
2018-12-25T22:00:39.957Z,88.59
2018-12-25T22:03:49.395Z,88.59
2018-12-25T22:06:58.085Z,88.79
2018-12-25T22:10:07.746Z,87.03
2018-12-25T22:13:16.792Z,86.80
2018-12-25T22:16:07.069Z,86.80
2018-12-25T22:18:57.229Z,87.74
2018-12-25T22:22:07.185Z,89.31
2018-12-25T22:24:58.191Z,89.85
2018-12-25T22:28:06.875Z,89.46
2018-12-25T22:30:57.695Z,89.46
2018-12-25T22:34:07.468Z,89.27
2018-12-25T22:37:00.366Z,89.15
2018-12-25T22:39:50.399Z,89.06
2018-12-25T22:42:40.451Z,89.23
2018-12-25T22:45:30.616Z,89.17
2018-12-25T22:48:38.282Z,89.17
2018-12-25T22:51:47.045Z,88.33
2018-12-25T22:54:36.677Z,88.02
2018-12-25T22:57:26.782Z,88.02
2018-12-25T23:00:35.619Z,87.00
2018-12-25T23:03:27.514Z,87.00
2018-12-25T23:06:17.232Z,86.78
2018-12-25T23:09:07.689Z,86.59
2018-12-25T23:12:16.744Z,86.13
2018-12-25T23:15:15.549Z,86.13
2018-12-25T23:18:05.489Z,85.63
2018-12-25T23:20:55.733Z,85.88
2018-12-25T23:23:57.838Z,86.50
2018-12-25T23:26:37.364Z,86.40
2018-12-25T23:29:27.251Z,85.72
2018-12-25T23:32:16.890Z,85.44
2018-12-25T23:35:06.773Z,85.55
2018-12-25T23:37:56.522Z,86.55
2018-12-25T23:40:46.138Z,87.31
2018-12-25T23:43:35.968Z,87.62
2018-12-25T23:46:25.786Z,88.17
2018-12-25T23:49:15.756Z,88.25
2018-12-25T23:52:05.296Z,88.50
2018-12-25T23:54:55.160Z,88.74
2018-12-25T23:57:45.220Z,88.95
